createdAt,value
2018-10-02T00:00:52.475Z,97331.42
2018-10-02T00:03:23.036Z,97331.75
2018-10-02T00:05:53.600Z,97332.11
2018-10-02T00:08:24.245Z,97327.16
2018-10-02T00:13:02.230Z,97331.94
2018-10-02T00:15:32.794Z,97327.02
2018-10-02T00:18:03.375Z,97332.84
2018-10-02T00:20:33.974Z,97330.95
2018-10-02T00:23:04.584Z,97331.78
2018-10-02T00:25:35.248Z,97325.64
2018-10-02T00:28:05.826Z,97321.23
2018-10-02T00:30:36.315Z,97332.69
2018-10-02T00:33:06.848Z,97328.49
2018-10-02T00:35:37.403Z,97335.83
2018-10-02T00:38:07.988Z,97329.32
2018-10-02T00:40:38.570Z,97328.13
2018-10-02T00:43:09.299Z,97331.73
2018-10-02T00:45:39.828Z,97331.81
2018-10-02T00:48:10.406Z,97336.55
2018-10-02T00:50:40.990Z,97333.48
2018-10-02T00:53:11.644Z,97341.00
2018-10-02T00:55:42.145Z,97335.39
2018-10-02T00:58:12.723Z,97335.69
2018-10-02T01:00:43.149Z,97329.14
2018-10-02T01:03:13.834Z,97333.18
2018-10-02T01:05:44.402Z,97326.76
2018-10-02T01:08:14.939Z,97333.26
2018-10-02T01:10:45.432Z,97327.45
2018-10-02T01:13:16.026Z,97331.96
2018-10-02T01:15:47.615Z,97333.87
2018-10-02T01:18:18.250Z,97334.72
2018-10-02T01:20:48.850Z,97338.70
2018-10-02T01:23:19.711Z,97339.64
2018-10-02T01:25:50.557Z,97344.30
2018-10-02T01:28:21.062Z,97343.79
2018-10-02T01:30:51.725Z,97342.22
2018-10-02T01:33:22.213Z,97345.28
2018-10-02T01:35:52.780Z,97348.59
2018-10-02T01:38:23.344Z,97350.69
2018-10-02T01:40:53.996Z,97344.38
2018-10-02T01:43:24.728Z,97341.21
2018-10-02T01:45:55.421Z,97340.89
2018-10-02T01:48:26.071Z,97340.29
2018-10-02T01:50:56.604Z,97352.91
2018-10-02T01:53:27.202Z,97354.30
2018-10-02T01:55:57.789Z,97343.36
2018-10-02T01:58:28.423Z,97350.54
2018-10-02T02:00:58.932Z,97350.91
2018-10-02T02:03:29.709Z,97352.81
2018-10-02T02:06:00.312Z,97352.58
2018-10-02T02:08:30.810Z,97351.16
2018-10-02T02:11:01.244Z,97350.22
2018-10-02T02:13:31.920Z,97358.34
2018-10-02T02:16:02.466Z,97356.20
2018-10-02T02:18:33.769Z,97358.14
2018-10-02T02:21:04.377Z,97365.15
2018-10-02T02:23:34.960Z,97367.61
2018-10-02T02:26:05.602Z,97371.41
2018-10-02T02:28:36.103Z,97372.24
2018-10-02T02:31:06.699Z,97381.20
2018-10-02T02:33:37.226Z,97383.80
2018-10-02T02:36:07.901Z,97382.59
2018-10-02T02:38:38.377Z,97387.09
2018-10-02T02:41:08.969Z,97386.30
2018-10-02T02:43:39.650Z,97388.99
2018-10-02T02:46:10.251Z,97385.86
2018-10-02T02:48:45.734Z,97391.66
2018-10-02T02:51:20.533Z,97388.13
2018-10-02T02:53:51.088Z,97390.45
2018-10-02T02:56:21.653Z,97387.63
2018-10-02T02:58:52.208Z,97389.63
2018-10-02T03:01:22.792Z,97390.32
2018-10-02T03:03:53.667Z,97388.56
2018-10-02T03:06:24.876Z,97385.73
2018-10-02T03:08:55.790Z,97396.02
2018-10-02T03:11:26.395Z,97394.75
2018-10-02T03:13:57.061Z,97390.75
2018-10-02T03:16:27.532Z,97405.47
2018-10-02T03:18:58.061Z,97409.34
2018-10-02T03:21:28.616Z,97401.70
2018-10-02T03:23:59.343Z,97413.85
2018-10-02T03:26:29.921Z,97415.85
2018-10-02T03:29:00.488Z,97420.69
2018-10-02T03:31:30.910Z,97416.79
2018-10-02T03:34:01.528Z,97424.32
2018-10-02T03:36:32.073Z,97429.55
2018-10-02T03:39:02.757Z,97434.50
2018-10-02T03:41:33.297Z,97431.69
2018-10-02T03:44:04.211Z,97435.69
2018-10-02T03:46:34.745Z,97437.09
2018-10-02T03:49:05.287Z,97437.80
2018-10-02T03:51:35.899Z,97441.67
2018-10-02T03:54:06.536Z,97445.80
2018-10-02T03:56:37.662Z,97450.08
2018-10-02T03:59:08.359Z,97448.53
2018-10-02T04:01:38.966Z,97455.85
2018-10-02T04:04:10.523Z,97454.91
2018-10-02T04:06:41.055Z,97451.85
2018-10-02T04:09:12.325Z,97457.52
2018-10-02T04:11:42.821Z,97454.09
2018-10-02T04:14:13.433Z,97458.89
2018-10-02T04:16:44.001Z,97454.89
2018-10-02T04:19:14.445Z,97464.58
2018-10-02T04:21:44.981Z,97463.48
2018-10-02T04:24:15.686Z,97466.81
2018-10-02T04:26:46.318Z,97471.67
2018-10-02T04:29:16.810Z,97468.38
2018-10-02T04:31:47.414Z,97474.52
2018-10-02T04:34:18.058Z,97478.03
2018-10-02T04:36:48.509Z,97483.35
2018-10-02T04:39:19.011Z,97487.73
2018-10-02T04:41:49.613Z,97487.97
2018-10-02T04:44:20.250Z,97490.20
2018-10-02T04:46:50.831Z,97495.28
2018-10-02T04:49:21.404Z,97496.70
2018-10-02T04:51:52.052Z,97496.23
2018-10-02T04:54:22.627Z,97505.67
2018-10-02T04:56:54.253Z,97511.58
2018-10-02T04:59:24.822Z,97516.19
2018-10-02T05:01:55.305Z,97511.11
2018-10-02T05:04:25.984Z,97512.77
2018-10-02T05:06:56.542Z,97515.23
2018-10-02T05:09:26.990Z,97519.13
2018-10-02T05:11:57.616Z,97515.02
2018-10-02T05:14:28.141Z,97522.09
2018-10-02T05:16:58.654Z,97527.76
2018-10-02T05:19:29.146Z,97523.97
2018-10-02T05:21:59.781Z,97531.99
2018-10-02T05:24:30.511Z,97528.95
2018-10-02T05:27:01.126Z,97538.85
2018-10-02T05:29:31.589Z,97539.31
2018-10-02T05:32:02.094Z,97550.05
2018-10-02T05:34:32.601Z,97547.20
2018-10-02T05:37:03.062Z,97546.84
2018-10-02T05:39:33.657Z,97548.50
2018-10-02T05:42:04.235Z,97554.40
2018-10-02T05:44:34.713Z,97561.13
2018-10-02T05:47:05.274Z,97562.44
2018-10-02T05:49:35.893Z,97562.19
2018-10-02T05:52:06.577Z,97565.39
2018-10-02T05:54:38.168Z,97573.30
2018-10-02T05:57:08.639Z,97570.80
2018-10-02T05:59:39.197Z,97574.95
2018-10-02T06:02:10.073Z,97579.42
2018-10-02T06:04:40.761Z,97580.98
2018-10-02T06:07:11.310Z,97591.95
2018-10-02T06:09:41.877Z,97598.77
2018-10-02T06:22:40.939Z,97599.58
2018-10-02T06:26:05.270Z,97601.62
2018-10-02T06:28:35.871Z,97604.45
2018-10-02T06:36:31.149Z,97621.67
2018-10-02T06:39:01.773Z,97620.95
2018-10-02T06:47:48.139Z,97617.80
2018-10-02T07:39:14.854Z,97683.31
2018-10-02T08:11:13.046Z,97706.08
2018-10-02T08:13:43.558Z,97720.16
2018-10-02T08:23:09.153Z,97723.98
2018-10-02T08:30:01.254Z,97726.75
2018-10-02T08:32:31.667Z,97729.20
2018-10-02T08:35:02.203Z,97736.32
2018-10-02T08:37:32.708Z,97731.83
2018-10-02T08:40:03.222Z,97737.65
2018-10-02T09:19:14.454Z,97768.80
2018-10-02T09:56:18.336Z,97790.52
2018-10-02T10:09:40.949Z,97797.89
2018-10-02T10:12:11.496Z,97800.64
2018-10-02T10:14:42.092Z,97806.11
2018-10-02T10:24:55.929Z,97794.81
2018-10-02T10:27:26.486Z,97801.94
2018-10-02T10:46:20.030Z,97790.41
2018-10-02T10:48:50.565Z,97790.20
2018-10-02T10:54:00.847Z,97788.98
2018-10-02T11:15:45.618Z,97794.61
2018-10-02T11:20:53.628Z,97795.83
2018-10-02T11:23:24.098Z,97793.00
2018-10-02T11:28:36.350Z,97792.46
2018-10-02T11:31:07.239Z,97795.25
2018-10-02T11:33:37.756Z,97796.23
2018-10-02T11:36:08.437Z,97791.44
2018-10-02T11:38:38.918Z,97788.00
2018-10-02T11:41:09.456Z,97788.16
2018-10-02T11:43:40.099Z,97789.59
2018-10-02T11:46:10.900Z,97790.16
2018-10-02T11:48:41.386Z,97789.98
2018-10-02T11:51:11.924Z,97793.09
2018-10-02T11:53:42.408Z,97796.37
2018-10-02T11:56:12.933Z,97798.58
2018-10-02T11:58:43.521Z,97799.61
2018-10-02T12:01:14.164Z,97802.66
2018-10-02T12:03:44.578Z,97798.41
2018-10-02T12:06:16.385Z,97793.95
2018-10-02T12:08:46.913Z,97795.17
2018-10-02T12:11:17.396Z,97791.92
2018-10-02T12:13:48.021Z,97788.73
2018-10-02T12:16:18.432Z,97793.38
2018-10-02T12:18:49.032Z,97792.13
2018-10-02T12:21:19.518Z,97788.88
2018-10-02T12:23:49.973Z,97790.52
2018-10-02T12:26:20.583Z,97786.00
2018-10-02T12:28:51.032Z,97784.65
2018-10-02T12:31:21.714Z,97783.34
2018-10-02T12:33:52.280Z,97787.57
2018-10-02T12:36:22.742Z,97788.05
2018-10-02T12:38:53.319Z,97781.70
2018-10-02T12:41:23.784Z,97782.73
2018-10-02T12:43:54.370Z,97784.20
2018-10-02T12:46:25.449Z,97782.33
2018-10-02T12:48:56.002Z,97776.79
2018-10-02T12:51:26.592Z,97783.89
2018-10-02T12:53:57.326Z,97778.15
2018-10-02T12:56:27.790Z,97783.79
2018-10-02T12:58:58.305Z,97781.84
2018-10-02T13:01:28.851Z,97784.20
2018-10-02T13:03:59.525Z,97783.20
2018-10-02T13:06:30.408Z,97787.04
2018-10-02T13:09:00.999Z,97781.17
2018-10-02T13:11:31.557Z,97785.58
2018-10-02T13:14:02.130Z,97787.98
2018-10-02T13:16:32.675Z,97792.48
2018-10-02T13:19:03.305Z,97789.81
2018-10-02T13:21:33.832Z,97793.11
2018-10-02T13:24:05.172Z,97790.19
2018-10-02T13:26:35.767Z,97789.30
2018-10-02T13:29:06.394Z,97788.67
2018-10-02T13:31:36.934Z,97788.34
2018-10-02T13:34:07.422Z,97784.80
2018-10-02T13:36:38.551Z,97787.77
2018-10-02T13:39:09.899Z,97786.61
2018-10-02T13:41:40.912Z,97781.84
2018-10-02T13:44:12.969Z,97785.38
2018-10-02T13:46:44.234Z,97785.88
2018-10-02T13:49:15.040Z,97787.61
2018-10-02T13:51:45.552Z,97786.98
2018-10-02T13:54:16.012Z,97787.11
2018-10-02T13:56:46.604Z,97787.56
2018-10-02T13:59:18.544Z,97789.20
2018-10-02T14:01:49.074Z,97791.41
2018-10-02T14:04:20.726Z,97793.02
2018-10-02T14:06:51.244Z,97795.58
2018-10-02T14:09:24.213Z,97790.45
2018-10-02T14:11:54.759Z,97802.80
2018-10-02T14:14:25.805Z,97800.75
2018-10-02T14:24:39.125Z,97790.91
2018-10-02T14:27:09.735Z,97787.88
2018-10-02T14:29:40.516Z,97785.61
2018-10-02T14:32:11.149Z,97788.23
2018-10-02T14:34:41.763Z,97790.90
2018-10-02T14:37:12.385Z,97791.20
2018-10-02T14:39:43.064Z,97793.78
2018-10-02T14:42:14.957Z,97785.67
2018-10-02T14:44:45.636Z,97783.47
2018-10-02T14:47:16.243Z,97784.02
2018-10-02T14:49:46.868Z,97781.55
2018-10-02T14:52:17.416Z,97781.84
2018-10-02T14:54:48.031Z,97785.88
2018-10-02T15:56:49.857Z,97801.67
2018-10-02T15:59:20.421Z,97796.99
2018-10-02T16:01:51.531Z,97799.17
2018-10-02T16:04:22.113Z,97800.05
2018-10-02T16:06:52.988Z,97807.11
2018-10-02T16:09:24.038Z,97811.94
2018-10-02T16:11:54.546Z,97816.47
2018-10-02T16:14:25.892Z,97814.50
2018-10-02T16:16:56.405Z,97813.34
2018-10-02T16:19:27.040Z,97818.01
2018-10-02T16:21:57.756Z,97818.40
2018-10-02T16:24:28.361Z,97813.10
2018-10-02T16:26:58.819Z,97817.96
2018-10-02T16:29:30.466Z,97819.88
2018-10-02T16:32:00.895Z,97820.84
2018-10-02T16:34:32.442Z,97826.45
2018-10-02T16:37:02.887Z,97828.04
2018-10-02T16:39:33.429Z,97826.42
2018-10-02T16:42:04.025Z,97820.38
2018-10-02T16:44:34.463Z,97818.52
2018-10-02T16:47:04.933Z,97813.41
2018-10-02T16:49:35.418Z,97821.51
2018-10-02T16:52:06.577Z,97826.64
2018-10-02T16:54:38.909Z,97821.67
2018-10-02T16:57:09.453Z,97823.80
2018-10-02T16:59:39.892Z,97833.32
2018-10-02T17:02:10.432Z,97833.93
2018-10-02T17:04:40.911Z,97829.92
2018-10-02T17:07:11.472Z,97834.08
2018-10-02T17:09:41.936Z,97839.30
2018-10-02T17:12:12.422Z,97831.98
2018-10-02T17:14:43.146Z,97836.66
2018-10-02T17:17:13.837Z,97836.84
2018-10-02T17:19:44.366Z,97839.31
2018-10-02T17:22:14.936Z,97843.13
2018-10-02T17:24:45.356Z,97836.98
2018-10-02T17:27:15.852Z,97835.92
2018-10-02T17:29:46.340Z,97833.58
2018-10-02T17:32:16.886Z,97832.88
2018-10-02T17:34:47.552Z,97829.91
2018-10-02T17:37:17.941Z,97830.52
2018-10-02T17:39:48.541Z,97833.95
2018-10-02T17:42:19.365Z,97837.17
2018-10-02T17:44:49.828Z,97792.73
2018-10-02T17:47:20.266Z,97836.57
2018-10-02T17:49:50.721Z,97838.38
2018-10-02T17:52:21.246Z,97833.27
2018-10-02T17:54:51.793Z,97836.80
2018-10-02T17:57:22.201Z,97835.63
2018-10-02T17:59:52.725Z,97836.70
2018-10-02T18:02:23.325Z,97837.63
2018-10-02T18:04:53.757Z,97838.34
2018-10-02T18:07:24.414Z,97835.16
2018-10-02T18:09:55.457Z,97840.71
2018-10-02T18:12:25.974Z,97841.17
2018-10-02T18:14:56.622Z,97843.78
2018-10-02T18:17:27.141Z,97838.34
2018-10-02T18:19:57.628Z,97838.27
2018-10-02T18:22:28.209Z,97835.67
2018-10-02T18:24:58.741Z,97831.86
2018-10-02T18:27:29.290Z,97821.80
2018-10-02T18:29:59.783Z,97828.32
2018-10-02T18:32:30.238Z,97828.92
2018-10-02T18:35:00.796Z,97824.52
2018-10-02T18:37:31.348Z,97824.91
2018-10-02T18:40:01.954Z,97825.62
2018-10-02T18:42:32.460Z,97824.45
2018-10-02T18:45:02.897Z,97822.31
2018-10-02T18:47:33.791Z,97826.69
2018-10-02T18:50:05.059Z,97830.23
2018-10-02T18:52:35.628Z,97823.52
2018-10-02T18:55:06.397Z,97824.66
2018-10-02T18:57:36.871Z,97820.17
2018-10-02T19:00:07.487Z,97824.79
2018-10-02T19:02:37.992Z,97824.92
2018-10-02T19:05:08.526Z,97825.16
2018-10-02T19:07:39.053Z,97827.30
2018-10-02T19:10:09.564Z,97824.82
2018-10-02T19:12:41.213Z,97825.42
2018-10-02T19:15:12.061Z,97823.75
2018-10-02T19:17:42.599Z,97817.14
2018-10-02T19:20:17.935Z,97820.45
2018-10-02T19:22:49.305Z,97819.02
2018-10-02T19:25:24.813Z,97813.10
2018-10-02T19:27:55.385Z,97819.98
2018-10-02T19:30:30.745Z,97814.17
2018-10-02T19:33:01.152Z,97814.64
2018-10-02T19:35:31.521Z,97815.11
2018-10-02T19:38:06.888Z,97815.47
2018-10-02T19:40:37.423Z,97826.02
2018-10-02T19:43:12.748Z,97820.22
2018-10-02T19:45:53.030Z,97826.45
2018-10-02T19:48:24.651Z,97829.43
2018-10-02T19:50:59.093Z,97827.39
2018-10-02T19:53:30.304Z,97823.42
2018-10-02T19:56:01.033Z,97822.35
2018-10-02T19:58:31.500Z,97825.69
2018-10-02T20:01:03.378Z,97827.09
2018-10-02T20:03:33.866Z,97825.92
2018-10-02T20:06:04.396Z,97822.14
2018-10-02T20:08:34.964Z,97820.61
2018-10-02T20:11:05.520Z,97819.91
2018-10-02T20:13:36.170Z,97827.95
2018-10-02T20:16:06.816Z,97828.31
2018-10-02T20:18:37.345Z,97832.12
2018-10-02T20:21:07.909Z,97834.83
2018-10-02T20:23:38.459Z,97836.97
2018-10-02T20:26:08.948Z,97834.47
2018-10-02T20:28:39.431Z,97834.09
2018-10-02T20:31:09.977Z,97837.30
2018-10-02T20:33:40.628Z,97830.92
2018-10-02T20:36:13.128Z,97827.38
2018-10-02T20:38:44.373Z,97829.41
2018-10-02T20:41:14.794Z,97837.45
2018-10-02T20:43:45.192Z,97843.02
2018-10-02T20:46:15.734Z,97840.44
2018-10-02T20:48:46.255Z,97832.62
2018-10-02T20:51:16.837Z,97831.58
2018-10-02T20:53:47.235Z,97829.91
2018-10-02T20:56:18.093Z,97817.37
2018-10-02T20:58:48.577Z,97827.66
2018-10-02T21:01:19.170Z,97829.08
2018-10-02T21:03:49.657Z,97790.67
2018-10-02T21:06:20.227Z,97831.45
2018-10-02T21:08:50.722Z,97830.98
2018-10-02T21:11:21.242Z,97827.09
2018-10-02T21:13:51.635Z,97831.83
2018-10-02T21:16:22.296Z,97826.38
2018-10-02T21:18:52.779Z,97832.18
2018-10-02T21:21:23.257Z,97824.38
2018-10-02T21:26:35.788Z,97829.58
2018-10-02T21:29:06.317Z,97829.58
2018-10-02T21:31:37.094Z,97825.91
2018-10-02T21:34:07.696Z,97831.81
2018-10-02T21:36:38.178Z,97837.85
2018-10-02T21:39:10.374Z,97836.81
2018-10-02T21:41:40.812Z,97832.30
2018-10-02T21:44:11.567Z,97835.38
2018-10-02T21:46:42.081Z,97829.33
2018-10-02T21:49:12.511Z,97831.36
2018-10-02T21:51:42.987Z,97824.84
2018-10-02T21:54:13.486Z,97826.27
2018-10-02T21:56:43.906Z,97818.00
2018-10-02T21:59:14.474Z,97814.55
2018-10-02T22:01:44.942Z,97818.22
2018-10-02T22:04:15.577Z,97818.45
2018-10-02T22:06:46.039Z,97821.42
2018-10-02T22:09:16.845Z,97814.55
2018-10-02T22:11:47.397Z,97820.47
2018-10-02T22:14:17.896Z,97820.13
2018-10-02T22:16:48.437Z,97829.13
2018-10-02T22:19:18.864Z,97824.62
2018-10-02T22:21:49.309Z,97832.44
2018-10-02T22:24:20.119Z,97832.30
2018-10-02T22:26:50.588Z,97831.84
2018-10-02T22:29:21.036Z,97837.37
2018-10-02T22:31:51.518Z,97841.78
2018-10-02T22:34:21.971Z,97845.91
2018-10-02T22:36:52.405Z,97841.66
2018-10-02T22:39:22.880Z,97852.98
2018-10-02T22:41:53.480Z,97851.48
2018-10-02T22:44:24.193Z,97851.69
2018-10-02T22:46:54.665Z,97846.96
2018-10-02T22:49:25.255Z,97860.44
2018-10-02T22:51:55.753Z,97861.14
2018-10-02T22:54:26.267Z,97858.67
2018-10-02T22:56:56.797Z,97856.06
2018-10-02T22:59:27.345Z,97869.07
2018-10-02T23:01:57.723Z,97861.02
2018-10-02T23:04:28.732Z,97870.38
2018-10-02T23:06:59.196Z,97870.97
2018-10-02T23:09:29.760Z,97863.05
2018-10-02T23:12:00.766Z,97860.07
2018-10-02T23:14:31.238Z,97862.41
2018-10-02T23:17:02.662Z,97854.59
2018-10-02T23:19:33.661Z,97850.68
2018-10-02T23:22:04.713Z,97854.58
2018-10-02T23:24:35.700Z,97843.84
2018-10-02T23:27:06.161Z,97847.03
2018-10-02T23:29:36.750Z,97852.35
2018-10-02T23:32:07.224Z,97852.72
2018-10-02T23:34:37.815Z,97855.66
2018-10-02T23:37:08.343Z,97852.13
2018-10-02T23:39:38.893Z,97854.48
2018-10-02T23:42:11.341Z,97855.54
2018-10-02T23:44:42.145Z,97859.31
2018-10-02T23:47:12.800Z,97857.55
2018-10-02T23:49:43.457Z,97855.63
2018-10-02T23:52:14.902Z,97855.55
2018-10-02T23:54:45.401Z,97854.09
2018-10-02T23:57:15.948Z,97848.55
2018-10-02T23:59:46.590Z,97847.59
